sensor_id;sensor_type;location;lat;lon;timestamp;P1;durP1;ratioP1;P2;durP2;ratioP2
25948;SDS011;13961;51.178;4.448;2023-02-15T00:00:31;63.22;;;28.58;;
25948;SDS011;13961;51.178;4.448;2023-02-15T00:02:57;66.38;;;28.65;;
25948;SDS011;13961;51.178;4.448;2023-02-15T00:05:23;66.88;;;29.42;;
25948;SDS011;13961;51.178;4.448;2023-02-15T00:07:48;65.28;;;28.55;;
25948;SDS011;13961;51.178;4.448;2023-02-15T00:10:14;62.55;;;27.83;;
25948;SDS011;13961;51.178;4.448;2023-02-15T00:12:41;65.47;;;28.73;;
25948;SDS011;13961;51.178;4.448;2023-02-15T00:15:07;58.63;;;29.40;;
25948;SDS011;13961;51.178;4.448;2023-02-15T00:17:33;62.35;;;28.80;;
25948;SDS011;13961;51.178;4.448;2023-02-15T00:19:59;66.53;;;29.08;;
25948;SDS011;13961;51.178;4.448;2023-02-15T00:22:25;63.22;;;28.60;;
25948;SDS011;13961;51.178;4.448;2023-02-15T00:24:51;63.42;;;29.80;;
25948;SDS011;13961;51.178;4.448;2023-02-15T00:27:16;65.00;;;29.20;;
25948;SDS011;13961;51.178;4.448;2023-02-15T00:29:42;66.50;;;28.95;;
25948;SDS011;13961;51.178;4.448;2023-02-15T00:32:07;67.25;;;30.15;;
25948;SDS011;13961;51.178;4.448;2023-02-15T00:34:33;65.63;;;30.95;;
25948;SDS011;13961;51.178;4.448;2023-02-15T00:36:59;69.43;;;28.70;;
25948;SDS011;13961;51.178;4.448;2023-02-15T00:39:24;64.93;;;30.20;;
25948;SDS011;13961;51.178;4.448;2023-02-15T00:41:52;63.83;;;28.85;;
25948;SDS011;13961;51.178;4.448;2023-02-15T00:44:18;62.65;;;30.05;;
25948;SDS011;13961;51.178;4.448;2023-02-15T00:46:44;68.60;;;30.58;;
25948;SDS011;13961;51.178;4.448;2023-02-15T00:49:11;68.35;;;31.30;;
25948;SDS011;13961;51.178;4.448;2023-02-15T00:51:37;72.75;;;31.38;;
25948;SDS011;13961;51.178;4.448;2023-02-15T00:54:04;64.20;;;30.83;;
25948;SDS011;13961;51.178;4.448;2023-02-15T00:56:31;72.97;;;32.03;;
25948;SDS011;13961;51.178;4.448;2023-02-15T00:58:58;70.28;;;32.33;;
25948;SDS011;13961;51.178;4.448;2023-02-15T01:01:24;72.45;;;33.47;;
25948;SDS011;13961;51.178;4.448;2023-02-15T01:03:50;74.03;;;32.88;;
25948;SDS011;13961;51.178;4.448;2023-02-15T01:06:17;75.18;;;31.40;;
25948;SDS011;13961;51.178;4.448;2023-02-15T01:08:44;74.55;;;33.40;;
25948;SDS011;13961;51.178;4.448;2023-02-15T01:11:11;70.80;;;31.42;;
25948;SDS011;13961;51.178;4.448;2023-02-15T01:13:39;63.88;;;30.88;;
25948;SDS011;13961;51.178;4.448;2023-02-15T01:16:06;66.45;;;29.98;;
25948;SDS011;13961;51.178;4.448;2023-02-15T01:18:32;69.07;;;31.73;;
25948;SDS011;13961;51.178;4.448;2023-02-15T01:20:59;69.40;;;30.67;;
25948;SDS011;13961;51.178;4.448;2023-02-15T01:23:24;73.20;;;32.05;;
25948;SDS011;13961;51.178;4.448;2023-02-15T01:25:50;67.10;;;31.60;;
25948;SDS011;13961;51.178;4.448;2023-02-15T01:28:16;70.65;;;32.88;;
25948;SDS011;13961;51.178;4.448;2023-02-15T01:30:41;70.57;;;32.90;;
25948;SDS011;13961;51.178;4.448;2023-02-15T01:33:09;68.05;;;31.52;;
25948;SDS011;13961;51.178;4.448;2023-02-15T01:35:42;69.25;;;32.30;;
25948;SDS011;13961;51.178;4.448;2023-02-15T01:38:09;74.88;;;33.17;;
25948;SDS011;13961;51.178;4.448;2023-02-15T01:40:34;70.28;;;32.80;;
25948;SDS011;13961;51.178;4.448;2023-02-15T01:43:00;75.60;;;32.95;;
25948;SDS011;13961;51.178;4.448;2023-02-15T01:45:27;72.85;;;33.25;;
25948;SDS011;13961;51.178;4.448;2023-02-15T01:50:42;73.28;;;32.92;;
25948;SDS011;13961;51.178;4.448;2023-02-15T01:56:26;68.38;;;32.33;;
25948;SDS011;13961;51.178;4.448;2023-02-15T01:58:36;71.43;;;31.77;;
25948;SDS011;13961;51.178;4.448;2023-02-15T02:01:04;82.60;;;34.55;;
25948;SDS011;13961;51.178;4.448;2023-02-15T02:03:38;67.25;;;31.67;;
25948;SDS011;13961;51.178;4.448;2023-02-15T02:06:07;67.97;;;31.13;;
25948;SDS011;13961;51.178;4.448;2023-02-15T02:08:33;70.90;;;31.90;;
25948;SDS011;13961;51.178;4.448;2023-02-15T02:10:59;73.05;;;31.42;;
25948;SDS011;13961;51.178;4.448;2023-02-15T02:13:25;69.80;;;32.67;;
25948;SDS011;13961;51.178;4.448;2023-02-15T02:15:57;77.53;;;32.55;;
25948;SDS011;13961;51.178;4.448;2023-02-15T02:21:29;76.97;;;32.08;;
25948;SDS011;13961;51.178;4.448;2023-02-15T02:32:42;72.05;;;30.65;;
25948;SDS011;13961;51.178;4.448;2023-02-15T02:35:30;68.40;;;30.83;;
25948;SDS011;13961;51.178;4.448;2023-02-15T02:43:50;77.63;;;31.05;;
25948;SDS011;13961;51.178;4.448;2023-02-15T02:49:12;65.22;;;30.00;;
25948;SDS011;13961;51.178;4.448;2023-02-15T02:51:38;65.10;;;29.75;;
25948;SDS011;13961;51.178;4.448;2023-02-15T02:54:04;66.45;;;30.15;;
25948;SDS011;13961;51.178;4.448;2023-02-15T02:56:39;65.72;;;30.08;;
25948;SDS011;13961;51.178;4.448;2023-02-15T03:01:44;74.43;;;31.33;;
25948;SDS011;13961;51.178;4.448;2023-02-15T03:04:17;71.13;;;30.42;;
25948;SDS011;13961;51.178;4.448;2023-02-15T03:07:26;68.47;;;29.77;;
25948;SDS011;13961;51.178;4.448;2023-02-15T03:09:49;76.75;;;30.00;;
25948;SDS011;13961;51.178;4.448;2023-02-15T03:12:21;65.60;;;28.48;;
25948;SDS011;13961;51.178;4.448;2023-02-15T03:14:55;68.15;;;29.35;;
25948;SDS011;13961;51.178;4.448;2023-02-15T03:17:46;65.10;;;29.55;;
25948;SDS011;13961;51.178;4.448;2023-02-15T03:20:27;62.83;;;29.13;;
25948;SDS011;13961;51.178;4.448;2023-02-15T03:22:58;67.70;;;28.65;;
25948;SDS011;13961;51.178;4.448;2023-02-15T03:25:34;68.60;;;28.92;;
25948;SDS011;13961;51.178;4.448;2023-02-15T03:28:09;65.82;;;31.00;;
25948;SDS011;13961;51.178;4.448;2023-02-15T03:31:06;64.32;;;28.83;;
25948;SDS011;13961;51.178;4.448;2023-02-15T03:33:34;65.72;;;29.02;;
25948;SDS011;13961;51.178;4.448;2023-02-15T03:36:20;65.50;;;30.00;;
25948;SDS011;13961;51.178;4.448;2023-02-15T03:39:01;68.65;;;28.58;;
25948;SDS011;13961;51.178;4.448;2023-02-15T03:41:48;59.47;;;28.83;;
25948;SDS011;13961;51.178;4.448;2023-02-15T03:44:36;59.60;;;28.00;;
25948;SDS011;13961;51.178;4.448;2023-02-15T03:47:17;65.75;;;29.20;;
25948;SDS011;13961;51.178;4.448;2023-02-15T03:49:56;61.35;;;28.42;;
25948;SDS011;13961;51.178;4.448;2023-02-15T03:52:26;65.47;;;28.48;;
25948;SDS011;13961;51.178;4.448;2023-02-15T03:54:54;65.00;;;28.33;;
25948;SDS011;13961;51.178;4.448;2023-02-15T03:57:22;65.30;;;27.40;;
25948;SDS011;13961;51.178;4.448;2023-02-15T04:00:13;64.32;;;28.63;;
25948;SDS011;13961;51.178;4.448;2023-02-15T04:03:08;58.83;;;26.58;;
25948;SDS011;13961;51.178;4.448;2023-02-15T04:05:47;61.03;;;27.80;;
25948;SDS011;13961;51.178;4.448;2023-02-15T04:08:13;57.67;;;27.48;;
25948;SDS011;13961;51.178;4.448;2023-02-15T04:10:39;67.88;;;28.55;;
25948;SDS011;13961;51.178;4.448;2023-02-15T04:13:18;59.67;;;27.75;;
25948;SDS011;13961;51.178;4.448;2023-02-15T04:15:47;64.78;;;27.95;;
25948;SDS011;13961;51.178;4.448;2023-02-15T04:18:38;63.10;;;28.60;;
25948;SDS011;13961;51.178;4.448;2023-02-15T04:21:25;67.30;;;28.55;;
25948;SDS011;13961;51.178;4.448;2023-02-15T04:24:11;69.32;;;27.02;;
25948;SDS011;13961;51.178;4.448;2023-02-15T04:26:56;67.47;;;28.17;;
25948;SDS011;13961;51.178;4.448;2023-02-15T04:29:23;55.83;;;27.05;;
25948;SDS011;13961;51.178;4.448;2023-02-15T04:31:50;61.17;;;27.42;;
25948;SDS011;13961;51.178;4.448;2023-02-15T04:34:17;59.40;;;27.58;;
25948;SDS011;13961;51.178;4.448;2023-02-15T04:36:43;70.00;;;28.30;;
25948;SDS011;13961;51.178;4.448;2023-02-15T04:39:09;66.40;;;27.27;;
25948;SDS011;13961;51.178;4.448;2023-02-15T04:41:38;65.30;;;27.08;;
25948;SDS011;13961;51.178;4.448;2023-02-15T04:44:03;67.13;;;28.20;;
25948;SDS011;13961;51.178;4.448;2023-02-15T04:46:29;58.90;;;26.90;;
25948;SDS011;13961;51.178;4.448;2023-02-15T04:48:55;60.53;;;27.05;;
25948;SDS011;13961;51.178;4.448;2023-02-15T04:51:21;58.15;;;25.65;;
25948;SDS011;13961;51.178;4.448;2023-02-15T04:53:47;60.47;;;26.10;;
25948;SDS011;13961;51.178;4.448;2023-02-15T04:56:12;63.83;;;27.42;;
25948;SDS011;13961;51.178;4.448;2023-02-15T04:58:38;56.50;;;25.80;;
25948;SDS011;13961;51.178;4.448;2023-02-15T05:01:07;68.28;;;27.15;;
25948;SDS011;13961;51.178;4.448;2023-02-15T05:03:34;53.67;;;25.90;;
25948;SDS011;13961;51.178;4.448;2023-02-15T05:06:00;64.60;;;27.23;;
25948;SDS011;13961;51.178;4.448;2023-02-15T05:08:25;64.65;;;28.10;;
25948;SDS011;13961;51.178;4.448;2023-02-15T05:10:51;60.65;;;26.88;;
25948;SDS011;13961;51.178;4.448;2023-02-15T05:13:17;61.60;;;27.42;;
25948;SDS011;13961;51.178;4.448;2023-02-15T05:15:46;64.10;;;27.17;;
25948;SDS011;13961;51.178;4.448;2023-02-15T05:18:13;58.38;;;25.67;;
25948;SDS011;13961;51.178;4.448;2023-02-15T05:20:40;60.75;;;27.13;;
25948;SDS011;13961;51.178;4.448;2023-02-15T05:23:05;61.00;;;26.35;;
25948;SDS011;13961;51.178;4.448;2023-02-15T05:25:31;61.33;;;27.70;;
25948;SDS011;13961;51.178;4.448;2023-02-15T05:28:15;60.65;;;26.92;;
25948;SDS011;13961;51.178;4.448;2023-02-15T05:30:44;61.40;;;28.17;;
25948;SDS011;13961;51.178;4.448;2023-02-15T05:33:10;59.00;;;27.70;;
25948;SDS011;13961;51.178;4.448;2023-02-15T05:35:36;63.20;;;28.80;;
25948;SDS011;13961;51.178;4.448;2023-02-15T05:38:01;66.85;;;28.05;;
25948;SDS011;13961;51.178;4.448;2023-02-15T05:40:27;62.85;;;27.23;;
25948;SDS011;13961;51.178;4.448;2023-02-15T05:42:53;60.78;;;26.90;;
25948;SDS011;13961;51.178;4.448;2023-02-15T05:45:19;57.72;;;26.48;;
25948;SDS011;13961;51.178;4.448;2023-02-15T05:47:44;61.85;;;26.50;;
25948;SDS011;13961;51.178;4.448;2023-02-15T05:50:10;61.88;;;27.38;;
25948;SDS011;13961;51.178;4.448;2023-02-15T05:52:38;57.33;;;26.08;;
25948;SDS011;13961;51.178;4.448;2023-02-15T05:55:04;65.18;;;27.90;;
25948;SDS011;13961;51.178;4.448;2023-02-15T05:57:31;56.58;;;26.15;;
25948;SDS011;13961;51.178;4.448;2023-02-15T05:59:57;57.42;;;27.67;;
25948;SDS011;13961;51.178;4.448;2023-02-15T06:02:22;62.58;;;28.00;;
25948;SDS011;13961;51.178;4.448;2023-02-15T06:04:49;62.35;;;26.73;;
25948;SDS011;13961;51.178;4.448;2023-02-15T06:07:14;68.53;;;28.70;;
25948;SDS011;13961;51.178;4.448;2023-02-15T06:09:40;61.55;;;27.63;;
25948;SDS011;13961;51.178;4.448;2023-02-15T06:12:06;59.80;;;26.83;;
25948;SDS011;13961;51.178;4.448;2023-02-15T06:14:31;59.70;;;27.95;;
25948;SDS011;13961;51.178;4.448;2023-02-15T06:16:57;60.38;;;26.55;;
25948;SDS011;13961;51.178;4.448;2023-02-15T06:19:23;61.42;;;26.83;;
25948;SDS011;13961;51.178;4.448;2023-02-15T06:21:48;60.55;;;26.83;;
25948;SDS011;13961;51.178;4.448;2023-02-15T06:24:15;55.10;;;26.10;;
25948;SDS011;13961;51.178;4.448;2023-02-15T06:26:41;53.33;;;26.23;;
25948;SDS011;13961;51.178;4.448;2023-02-15T06:29:10;57.40;;;24.90;;
25948;SDS011;13961;51.178;4.448;2023-02-15T06:31:37;66.55;;;27.90;;
25948;SDS011;13961;51.178;4.448;2023-02-15T06:34:02;57.28;;;26.65;;
25948;SDS011;13961;51.178;4.448;2023-02-15T06:36:29;66.25;;;27.55;;
25948;SDS011;13961;51.178;4.448;2023-02-15T06:38:59;55.42;;;26.80;;
25948;SDS011;13961;51.178;4.448;2023-02-15T06:41:25;61.30;;;27.27;;
25948;SDS011;13961;51.178;4.448;2023-02-15T06:43:51;55.20;;;26.00;;
25948;SDS011;13961;51.178;4.448;2023-02-15T06:46:16;55.22;;;26.60;;
25948;SDS011;13961;51.178;4.448;2023-02-15T06:48:42;63.28;;;26.10;;
25948;SDS011;13961;51.178;4.448;2023-02-15T06:51:09;57.80;;;26.85;;
25948;SDS011;13961;51.178;4.448;2023-02-15T06:53:34;61.53;;;26.40;;
25948;SDS011;13961;51.178;4.448;2023-02-15T06:56:04;65.68;;;26.92;;
25948;SDS011;13961;51.178;4.448;2023-02-15T06:58:35;57.17;;;26.05;;
25948;SDS011;13961;51.178;4.448;2023-02-15T07:01:04;59.15;;;26.13;;
25948;SDS011;13961;51.178;4.448;2023-02-15T07:03:31;60.08;;;27.40;;
25948;SDS011;13961;51.178;4.448;2023-02-15T07:06:00;61.22;;;27.30;;
25948;SDS011;13961;51.178;4.448;2023-02-15T07:08:29;59.25;;;27.40;;
25948;SDS011;13961;51.178;4.448;2023-02-15T07:10:54;55.80;;;26.08;;
25948;SDS011;13961;51.178;4.448;2023-02-15T07:13:44;54.15;;;25.10;;
25948;SDS011;13961;51.178;4.448;2023-02-15T07:16:10;60.10;;;27.48;;
25948;SDS011;13961;51.178;4.448;2023-02-15T07:18:37;63.65;;;25.50;;
25948;SDS011;13961;51.178;4.448;2023-02-15T07:21:03;59.88;;;26.13;;
25948;SDS011;13961;51.178;4.448;2023-02-15T07:23:29;58.17;;;26.70;;
25948;SDS011;13961;51.178;4.448;2023-02-15T07:25:58;59.00;;;26.98;;
25948;SDS011;13961;51.178;4.448;2023-02-15T07:28:24;59.22;;;26.70;;
25948;SDS011;13961;51.178;4.448;2023-02-15T07:30:50;60.03;;;27.40;;
25948;SDS011;13961;51.178;4.448;2023-02-15T07:33:17;61.92;;;26.10;;
25948;SDS011;13961;51.178;4.448;2023-02-15T07:35:49;67.25;;;28.27;;
25948;SDS011;13961;51.178;4.448;2023-02-15T07:38:16;65.63;;;28.73;;
25948;SDS011;13961;51.178;4.448;2023-02-15T07:40:44;65.18;;;28.80;;
25948;SDS011;13961;51.178;4.448;2023-02-15T07:43:10;63.83;;;28.23;;
25948;SDS011;13961;51.178;4.448;2023-02-15T07:45:37;63.30;;;28.77;;
25948;SDS011;13961;51.178;4.448;2023-02-15T07:48:03;66.40;;;30.33;;
25948;SDS011;13961;51.178;4.448;2023-02-15T07:50:29;68.00;;;31.27;;
25948;SDS011;13961;51.178;4.448;2023-02-15T07:52:57;58.20;;;27.92;;
25948;SDS011;13961;51.178;4.448;2023-02-15T07:55:22;58.92;;;27.15;;
25948;SDS011;13961;51.178;4.448;2023-02-15T07:57:49;52.58;;;25.35;;
25948;SDS011;13961;51.178;4.448;2023-02-15T08:00:16;52.33;;;25.13;;
25948;SDS011;13961;51.178;4.448;2023-02-15T08:02:48;53.05;;;24.50;;
25948;SDS011;13961;51.178;4.448;2023-02-15T08:05:35;50.42;;;24.52;;
25948;SDS011;13961;51.178;4.448;2023-02-15T08:08:02;51.55;;;25.13;;
25948;SDS011;13961;51.178;4.448;2023-02-15T08:10:28;55.58;;;24.85;;
25948;SDS011;13961;51.178;4.448;2023-02-15T08:13:12;50.58;;;25.52;;
25948;SDS011;13961;51.178;4.448;2023-02-15T08:15:39;50.70;;;26.25;;
25948;SDS011;13961;51.178;4.448;2023-02-15T08:18:05;46.90;;;23.63;;
25948;SDS011;13961;51.178;4.448;2023-02-15T08:20:31;53.17;;;25.02;;
25948;SDS011;13961;51.178;4.448;2023-02-15T08:22:57;45.97;;;25.02;;
25948;SDS011;13961;51.178;4.448;2023-02-15T08:25:23;48.13;;;25.08;;
25948;SDS011;13961;51.178;4.448;2023-02-15T08:27:50;45.20;;;23.80;;
25948;SDS011;13961;51.178;4.448;2023-02-15T08:30:17;47.55;;;24.63;;
25948;SDS011;13961;51.178;4.448;2023-02-15T08:32:43;51.63;;;24.85;;
25948;SDS011;13961;51.178;4.448;2023-02-15T08:35:10;52.90;;;25.98;;
25948;SDS011;13961;51.178;4.448;2023-02-15T08:37:37;50.28;;;25.83;;
25948;SDS011;13961;51.178;4.448;2023-02-15T08:40:04;48.58;;;24.60;;
25948;SDS011;13961;51.178;4.448;2023-02-15T08:42:32;56.63;;;25.67;;
25948;SDS011;13961;51.178;4.448;2023-02-15T08:45:01;50.53;;;25.33;;
25948;SDS011;13961;51.178;4.448;2023-02-15T08:47:27;44.85;;;24.27;;
25948;SDS011;13961;51.178;4.448;2023-02-15T08:49:53;51.10;;;24.90;;
25948;SDS011;13961;51.178;4.448;2023-02-15T08:52:20;56.10;;;24.90;;
25948;SDS011;13961;51.178;4.448;2023-02-15T08:54:46;56.70;;;23.88;;
25948;SDS011;13961;51.178;4.448;2023-02-15T08:57:12;53.78;;;24.10;;
25948;SDS011;13961;51.178;4.448;2023-02-15T08:59:38;47.95;;;24.23;;
25948;SDS011;13961;51.178;4.448;2023-02-15T09:02:04;50.97;;;24.30;;
25948;SDS011;13961;51.178;4.448;2023-02-15T09:04:31;56.17;;;25.55;;
25948;SDS011;13961;51.178;4.448;2023-02-15T09:06:58;49.38;;;23.48;;
25948;SDS011;13961;51.178;4.448;2023-02-15T09:09:23;50.80;;;24.17;;
25948;SDS011;13961;51.178;4.448;2023-02-15T09:11:50;57.45;;;24.98;;
25948;SDS011;13961;51.178;4.448;2023-02-15T09:14:18;56.47;;;24.63;;
25948;SDS011;13961;51.178;4.448;2023-02-15T09:16:47;56.08;;;25.00;;
25948;SDS011;13961;51.178;4.448;2023-02-15T09:19:18;53.70;;;25.45;;
25948;SDS011;13961;51.178;4.448;2023-02-15T09:21:46;49.92;;;24.85;;
25948;SDS011;13961;51.178;4.448;2023-02-15T09:24:14;54.97;;;25.52;;
25948;SDS011;13961;51.178;4.448;2023-02-15T09:26:43;57.05;;;25.25;;
25948;SDS011;13961;51.178;4.448;2023-02-15T09:29:12;50.10;;;24.73;;
25948;SDS011;13961;51.178;4.448;2023-02-15T09:31:41;56.78;;;25.80;;
25948;SDS011;13961;51.178;4.448;2023-02-15T09:34:18;53.67;;;26.42;;
25948;SDS011;13961;51.178;4.448;2023-02-15T09:36:45;53.30;;;25.10;;
25948;SDS011;13961;51.178;4.448;2023-02-15T09:39:15;53.63;;;24.42;;
25948;SDS011;13961;51.178;4.448;2023-02-15T09:52:43;49.60;;;24.52;;
25948;SDS011;13961;51.178;4.448;2023-02-15T09:58:01;49.10;;;24.15;;
25948;SDS011;13961;51.178;4.448;2023-02-15T10:28:17;44.42;;;21.23;;
25948;SDS011;13961;51.178;4.448;2023-02-15T10:30:49;48.13;;;21.23;;
25948;SDS011;13961;51.178;4.448;2023-02-15T10:33:21;39.17;;;20.33;;
25948;SDS011;13961;51.178;4.448;2023-02-15T10:36:18;48.33;;;21.65;;
25948;SDS011;13961;51.178;4.448;2023-02-15T10:38:52;44.53;;;20.15;;
25948;SDS011;13961;51.178;4.448;2023-02-15T10:50:24;37.28;;;19.30;;
25948;SDS011;13961;51.178;4.448;2023-02-15T10:56:15;42.72;;;19.85;;
25948;SDS011;13961;51.178;4.448;2023-02-15T11:04:04;39.60;;;19.20;;
25948;SDS011;13961;51.178;4.448;2023-02-15T11:06:33;43.90;;;20.55;;
25948;SDS011;13961;51.178;4.448;2023-02-15T11:09:04;42.88;;;20.00;;
25948;SDS011;13961;51.178;4.448;2023-02-15T11:14:17;37.85;;;18.50;;
25948;SDS011;13961;51.178;4.448;2023-02-15T11:16:47;40.38;;;19.75;;
25948;SDS011;13961;51.178;4.448;2023-02-15T11:19:24;44.42;;;19.23;;
25948;SDS011;13961;51.178;4.448;2023-02-15T11:22:01;40.72;;;19.67;;
25948;SDS011;13961;51.178;4.448;2023-02-15T11:24:30;40.67;;;19.73;;
25948;SDS011;13961;51.178;4.448;2023-02-15T11:27:16;39.95;;;20.05;;
25948;SDS011;13961;51.178;4.448;2023-02-15T11:32:23;42.85;;;19.95;;
25948;SDS011;13961;51.178;4.448;2023-02-15T11:37:34;43.03;;;18.85;;
25948;SDS011;13961;51.178;4.448;2023-02-15T11:40:13;40.80;;;19.17;;
25948;SDS011;13961;51.178;4.448;2023-02-15T11:42:51;43.53;;;19.20;;
25948;SDS011;13961;51.178;4.448;2023-02-15T11:45:29;43.20;;;18.77;;
25948;SDS011;13961;51.178;4.448;2023-02-15T11:47:57;41.17;;;19.42;;
25948;SDS011;13961;51.178;4.448;2023-02-15T11:50:25;41.13;;;19.38;;
25948;SDS011;13961;51.178;4.448;2023-02-15T11:52:57;41.03;;;18.73;;
25948;SDS011;13961;51.178;4.448;2023-02-15T11:55:27;42.90;;;19.60;;
25948;SDS011;13961;51.178;4.448;2023-02-15T11:58:02;41.70;;;19.35;;
25948;SDS011;13961;51.178;4.448;2023-02-15T12:03:28;42.65;;;18.85;;
25948;SDS011;13961;51.178;4.448;2023-02-15T12:11:42;37.30;;;19.20;;
25948;SDS011;13961;51.178;4.448;2023-02-15T12:14:11;41.47;;;19.95;;
25948;SDS011;13961;51.178;4.448;2023-02-15T12:16:53;41.35;;;19.27;;
25948;SDS011;13961;51.178;4.448;2023-02-15T12:19:27;43.88;;;19.25;;
25948;SDS011;13961;51.178;4.448;2023-02-15T12:21:55;41.85;;;19.33;;
25948;SDS011;13961;51.178;4.448;2023-02-15T12:24:56;40.72;;;19.90;;
25948;SDS011;13961;51.178;4.448;2023-02-15T12:27:18;41.58;;;19.58;;
25948;SDS011;13961;51.178;4.448;2023-02-15T12:29:55;39.53;;;19.67;;
25948;SDS011;13961;51.178;4.448;2023-02-15T12:32:27;41.90;;;18.70;;
25948;SDS011;13961;51.178;4.448;2023-02-15T12:35:08;46.47;;;20.27;;
25948;SDS011;13961;51.178;4.448;2023-02-15T12:37:40;42.90;;;20.05;;
25948;SDS011;13961;51.178;4.448;2023-02-15T12:40:28;41.00;;;19.60;;
25948;SDS011;13961;51.178;4.448;2023-02-15T12:42:56;45.60;;;20.77;;
25948;SDS011;13961;51.178;4.448;2023-02-15T12:45:34;42.03;;;21.08;;
25948;SDS011;13961;51.178;4.448;2023-02-15T12:48:15;42.53;;;19.92;;
25948;SDS011;13961;51.178;4.448;2023-02-15T12:50:46;41.90;;;19.33;;
25948;SDS011;13961;51.178;4.448;2023-02-15T12:53:15;40.38;;;19.02;;
25948;SDS011;13961;51.178;4.448;2023-02-15T12:55:56;43.35;;;19.42;;
25948;SDS011;13961;51.178;4.448;2023-02-15T12:58:30;39.28;;;18.98;;
25948;SDS011;13961;51.178;4.448;2023-02-15T13:01:15;43.72;;;20.45;;
25948;SDS011;13961;51.178;4.448;2023-02-15T13:04:05;40.28;;;19.73;;
25948;SDS011;13961;51.178;4.448;2023-02-15T13:06:46;43.58;;;19.98;;
25948;SDS011;13961;51.178;4.448;2023-02-15T13:11:56;49.10;;;20.05;;
25948;SDS011;13961;51.178;4.448;2023-02-15T13:14:33;43.47;;;20.08;;
25948;SDS011;13961;51.178;4.448;2023-02-15T13:17:03;42.78;;;20.45;;
25948;SDS011;13961;51.178;4.448;2023-02-15T13:19:51;39.92;;;19.98;;
25948;SDS011;13961;51.178;4.448;2023-02-15T13:22:40;43.10;;;20.13;;
25948;SDS011;13961;51.178;4.448;2023-02-15T13:25:19;46.05;;;21.10;;
25948;SDS011;13961;51.178;4.448;2023-02-15T13:27:54;37.90;;;19.92;;
25948;SDS011;13961;51.178;4.448;2023-02-15T13:32:58;38.08;;;19.25;;
25948;SDS011;13961;51.178;4.448;2023-02-15T13:35:28;41.67;;;19.70;;
25948;SDS011;13961;51.178;4.448;2023-02-15T13:40:55;44.13;;;20.08;;
25948;SDS011;13961;51.178;4.448;2023-02-15T13:43:33;40.22;;;20.20;;
25948;SDS011;13961;51.178;4.448;2023-02-15T13:46:19;39.83;;;20.17;;
25948;SDS011;13961;51.178;4.448;2023-02-15T13:57:38;42.78;;;19.33;;
25948;SDS011;13961;51.178;4.448;2023-02-15T14:00:30;42.60;;;20.02;;
25948;SDS011;13961;51.178;4.448;2023-02-15T14:06:10;41.20;;;20.25;;
25948;SDS011;13961;51.178;4.448;2023-02-15T14:09:27;42.28;;;21.63;;
25948;SDS011;13961;51.178;4.448;2023-02-15T14:14:35;40.13;;;19.60;;
25948;SDS011;13961;51.178;4.448;2023-02-15T14:30:39;41.72;;;19.92;;
25948;SDS011;13961;51.178;4.448;2023-02-15T14:33:23;39.38;;;20.88;;
25948;SDS011;13961;51.178;4.448;2023-02-15T14:45:01;41.78;;;19.48;;
25948;SDS011;13961;51.178;4.448;2023-02-15T14:47:09;32.60;;;17.50;;
25948;SDS011;13961;51.178;4.448;2023-02-15T14:49:40;37.63;;;18.55;;
25948;SDS011;13961;51.178;4.448;2023-02-15T14:52:11;41.25;;;19.50;;
25948;SDS011;13961;51.178;4.448;2023-02-15T15:04:37;43.75;;;20.33;;
25948;SDS011;13961;51.178;4.448;2023-02-15T15:07:14;40.67;;;18.67;;
25948;SDS011;13961;51.178;4.448;2023-02-15T15:09:58;40.85;;;19.50;;
25948;SDS011;13961;51.178;4.448;2023-02-15T15:15:00;43.70;;;20.17;;
25948;SDS011;13961;51.178;4.448;2023-02-15T15:22:38;40.75;;;20.90;;
25948;SDS011;13961;51.178;4.448;2023-02-15T15:25:12;45.45;;;22.85;;
25948;SDS011;13961;51.178;4.448;2023-02-15T15:27:45;43.53;;;21.15;;
25948;SDS011;13961;51.178;4.448;2023-02-15T15:47:13;42.75;;;20.48;;
25948;SDS011;13961;51.178;4.448;2023-02-15T15:50:00;40.63;;;20.73;;
25948;SDS011;13961;51.178;4.448;2023-02-15T15:52:31;38.38;;;19.15;;
25948;SDS011;13961;51.178;4.448;2023-02-15T15:55:04;42.38;;;21.10;;
25948;SDS011;13961;51.178;4.448;2023-02-15T15:57:44;44.28;;;20.40;;
25948;SDS011;13961;51.178;4.448;2023-02-15T16:03:26;39.15;;;19.80;;
25948;SDS011;13961;51.178;4.448;2023-02-15T16:05:53;39.65;;;19.65;;
25948;SDS011;13961;51.178;4.448;2023-02-15T16:08:43;40.40;;;20.42;;
25948;SDS011;13961;51.178;4.448;2023-02-15T16:11:23;39.13;;;20.33;;
25948;SDS011;13961;51.178;4.448;2023-02-15T16:16:22;43.03;;;21.25;;
25948;SDS011;13961;51.178;4.448;2023-02-15T16:18:53;42.97;;;19.67;;
25948;SDS011;13961;51.178;4.448;2023-02-15T16:21:32;43.45;;;19.85;;
25948;SDS011;13961;51.178;4.448;2023-02-15T16:29:42;42.63;;;20.90;;
25948;SDS011;13961;51.178;4.448;2023-02-15T16:32:19;42.55;;;20.23;;
25948;SDS011;13961;51.178;4.448;2023-02-15T16:37:26;40.40;;;20.27;;
25948;SDS011;13961;51.178;4.448;2023-02-15T16:39:57;44.83;;;21.23;;
25948;SDS011;13961;51.178;4.448;2023-02-15T16:42:22;50.00;;;21.33;;
25948;SDS011;13961;51.178;4.448;2023-02-15T16:44:57;41.78;;;20.23;;
25948;SDS011;13961;51.178;4.448;2023-02-15T16:47:46;40.92;;;20.42;;
25948;SDS011;13961;51.178;4.448;2023-02-15T16:50:17;46.30;;;20.13;;
25948;SDS011;13961;51.178;4.448;2023-02-15T16:52:54;42.50;;;20.73;;
25948;SDS011;13961;51.178;4.448;2023-02-15T16:55:24;42.95;;;20.90;;
25948;SDS011;13961;51.178;4.448;2023-02-15T16:57:54;45.10;;;21.08;;
25948;SDS011;13961;51.178;4.448;2023-02-15T17:00:22;39.75;;;20.05;;
25948;SDS011;13961;51.178;4.448;2023-02-15T17:03:06;44.00;;;20.65;;
25948;SDS011;13961;51.178;4.448;2023-02-15T17:08:27;44.08;;;21.42;;
25948;SDS011;13961;51.178;4.448;2023-02-15T17:13:25;44.08;;;21.30;;
25948;SDS011;13961;51.178;4.448;2023-02-15T17:18:24;40.00;;;20.75;;
25948;SDS011;13961;51.178;4.448;2023-02-15T17:21:16;38.63;;;19.77;;
25948;SDS011;13961;51.178;4.448;2023-02-15T17:23:46;44.85;;;21.30;;
25948;SDS011;13961;51.178;4.448;2023-02-15T17:26:22;46.65;;;21.95;;
25948;SDS011;13961;51.178;4.448;2023-02-15T17:28:56;45.85;;;21.20;;
25948;SDS011;13961;51.178;4.448;2023-02-15T17:31:27;47.72;;;22.20;;
25948;SDS011;13961;51.178;4.448;2023-02-15T17:33:58;44.20;;;21.52;;
25948;SDS011;13961;51.178;4.448;2023-02-15T17:36:26;42.25;;;21.80;;
25948;SDS011;13961;51.178;4.448;2023-02-15T17:41:27;46.78;;;21.13;;
25948;SDS011;13961;51.178;4.448;2023-02-15T17:46:22;48.25;;;22.08;;
25948;SDS011;13961;51.178;4.448;2023-02-15T17:48:54;48.97;;;21.90;;
25948;SDS011;13961;51.178;4.448;2023-02-15T17:51:21;43.90;;;21.73;;
25948;SDS011;13961;51.178;4.448;2023-02-15T17:53:47;47.10;;;23.95;;
25948;SDS011;13961;51.178;4.448;2023-02-15T17:56:35;47.17;;;22.42;;
25948;SDS011;13961;51.178;4.448;2023-02-15T17:59:03;53.67;;;24.02;;
25948;SDS011;13961;51.178;4.448;2023-02-15T18:01:34;53.40;;;25.35;;
25948;SDS011;13961;51.178;4.448;2023-02-15T18:04:21;45.65;;;24.50;;
25948;SDS011;13961;51.178;4.448;2023-02-15T18:07:08;50.03;;;24.15;;
25948;SDS011;13961;51.178;4.448;2023-02-15T18:09:56;47.63;;;23.23;;
25948;SDS011;13961;51.178;4.448;2023-02-15T18:12:40;53.58;;;24.40;;
25948;SDS011;13961;51.178;4.448;2023-02-15T18:15:08;48.30;;;22.90;;